Terminal Aerodrome Forecast
Issued by NWS Corpus Christi, TX

Home | Current Version | Previous Version | Text Only | Print | Product List | Glossary On
Versions: 1 2 3 4 5 6 7 8 9 10 11 12 13 14 15 16 17 18
200
FTUS44 KCRP 281452 AAB
TAFCRP
TAF AMD
KCRP 281452Z 2815/2912 15015G22KT P6SM FEW015 SCT029
     FM281800 14020G30KT P6SM SCT035
     FM290300 14015KT P6SM VCSH SCT015 BKN025 OVC150 PROB30
      2910/2912 VRB15G30KT 3SM TSRA BKN012CB OVC020=

USA.gov is the U.S. government's official web portal to all federal, state and local government web resources and services.